createdAt,value
2024-04-18T00:02:19.763Z,2.24
2024-04-18T00:05:05.085Z,2.20
2024-04-18T00:07:50.110Z,2.18
2024-04-18T00:10:35.189Z,2.18
2024-04-18T00:13:20.337Z,2.23
2024-04-18T00:16:05.273Z,2.22
2024-04-18T00:18:50.340Z,2.25
2024-04-18T00:21:35.363Z,2.24
2024-04-18T00:24:20.601Z,2.20
2024-04-18T00:27:05.614Z,2.25
2024-04-18T00:29:50.724Z,2.27
2024-04-18T00:32:35.955Z,2.34
2024-04-18T00:35:20.936Z,2.39
2024-04-18T00:38:06.193Z,2.34
2024-04-18T00:40:51.228Z,2.29
2024-04-18T00:43:36.378Z,2.30
2024-04-18T00:46:21.420Z,2.25
2024-04-18T00:49:06.545Z,2.21
2024-04-18T00:51:51.837Z,2.18
2024-04-18T00:54:36.859Z,2.17
2024-04-18T00:57:21.700Z,2.11
2024-04-18T01:00:06.784Z,2.12
2024-04-18T01:02:51.871Z,2.10
2024-04-18T01:05:36.888Z,2.11
2024-04-18T01:08:21.886Z,2.11
2024-04-18T01:11:06.981Z,2.08
2024-04-18T01:13:51.876Z,2.06
2024-04-18T01:16:36.889Z,2.06
2024-04-18T01:19:22.010Z,2.13
2024-04-18T01:22:07.181Z,2.22
2024-04-18T01:24:52.235Z,2.24
2024-04-18T01:27:37.411Z,2.29
2024-04-18T01:30:22.410Z,2.27
2024-04-18T01:33:07.396Z,2.24
2024-04-18T01:35:52.491Z,2.27
2024-04-18T01:38:37.571Z,2.30
2024-04-18T01:41:22.713Z,2.37
2024-04-18T01:44:07.652Z,2.34
2024-04-18T01:46:52.946Z,2.33
2024-04-18T01:49:38.020Z,2.31
2024-04-18T01:52:23.174Z,2.35
2024-04-18T01:55:08.199Z,2.41
2024-04-18T01:57:53.305Z,2.32
2024-04-18T02:00:38.436Z,2.22
2024-04-18T02:03:23.565Z,2.11
2024-04-18T02:06:08.569Z,2.00
2024-04-18T02:08:53.538Z,1.84
2024-04-18T02:11:38.662Z,1.81
2024-04-18T02:14:23.766Z,1.81
2024-04-18T02:17:08.735Z,1.81
2024-04-18T02:19:53.745Z,1.82
2024-04-18T02:22:38.695Z,1.79
2024-04-18T02:25:23.859Z,1.74
2024-04-18T02:28:08.933Z,1.71
2024-04-18T02:30:53.935Z,1.60
2024-04-18T02:33:38.980Z,1.62
2024-04-18T02:36:23.889Z,1.65
2024-04-18T02:39:08.894Z,1.68
2024-04-18T02:41:54.054Z,1.73
2024-04-18T02:44:39.172Z,1.74
2024-04-18T02:47:24.198Z,1.75
2024-04-18T02:50:09.331Z,1.81
2024-04-18T02:52:54.359Z,1.76
2024-04-18T02:55:39.431Z,1.72
2024-04-18T02:58:24.530Z,1.55
2024-04-18T03:01:09.657Z,1.53
2024-04-18T03:03:54.975Z,1.50
2024-04-18T03:06:40.235Z,1.37
2024-04-18T03:09:25.437Z,1.34
2024-04-18T03:12:10.362Z,1.30
2024-04-18T03:14:55.550Z,1.26
2024-04-18T03:17:40.723Z,1.29
2024-04-18T03:20:25.661Z,1.46
2024-04-18T03:25:52.670Z,1.77
2024-04-18T03:28:37.740Z,1.89
2024-04-18T03:31:22.800Z,1.99
2024-04-18T03:34:07.893Z,2.10
2024-04-18T03:36:52.966Z,2.20
2024-04-18T03:39:38.033Z,2.27
2024-04-18T03:42:22.919Z,2.32
2024-04-18T03:45:08.040Z,2.34
2024-04-18T03:47:53.198Z,2.36
2024-04-18T03:50:38.349Z,2.36
2024-04-18T03:53:23.584Z,2.36
2024-04-18T03:56:08.684Z,2.29
2024-04-18T03:58:53.760Z,2.21
2024-04-18T04:01:38.871Z,1.91
2024-04-18T04:04:24.002Z,1.70
2024-04-18T04:07:08.891Z,1.54
2024-04-18T04:09:54.042Z,1.43
2024-04-18T04:12:39.262Z,1.29
2024-04-18T04:15:24.220Z,1.16
2024-04-18T04:18:09.493Z,1.13
2024-04-18T04:20:54.305Z,1.19
2024-04-18T04:23:39.973Z,1.27
2024-04-18T04:26:24.981Z,1.28
2024-04-18T04:29:10.010Z,1.38
2024-04-18T04:31:55.287Z,1.56
2024-04-18T04:34:40.291Z,1.68
2024-04-18T04:37:25.382Z,1.77
2024-04-18T04:40:10.518Z,1.82
2024-04-18T04:42:58.828Z,1.89
2024-04-18T04:45:45.557Z,1.89
2024-04-18T04:48:32.239Z,1.94
2024-04-18T04:51:19.112Z,1.95
2024-04-18T04:54:04.256Z,1.78
2024-04-18T04:56:49.234Z,1.58
2024-04-18T04:59:34.347Z,1.53
2024-04-18T05:02:19.464Z,1.43
2024-04-18T05:05:04.454Z,1.24
2024-04-18T05:07:51.350Z,1.13
2024-04-18T05:13:19.187Z,1.04
2024-04-18T05:16:04.111Z,0.96
2024-04-18T05:18:49.311Z,0.84
2024-04-18T05:21:34.139Z,0.78
2024-04-18T05:24:19.334Z,0.57
2024-04-18T05:27:04.335Z,0.65
2024-04-18T05:29:49.498Z,0.73
2024-04-18T05:32:34.689Z,0.79
2024-04-18T05:35:20.149Z,0.79
2024-04-18T05:38:05.298Z,0.90
2024-04-18T05:40:50.314Z,0.97
2024-04-18T05:43:35.748Z,1.15
2024-04-18T05:46:21.071Z,1.38
2024-04-18T05:49:06.099Z,1.60
2024-04-18T05:51:51.342Z,1.79
2024-04-18T05:54:36.394Z,1.93
2024-04-18T05:57:21.535Z,2.10
2024-04-18T06:00:07.550Z,2.28
2024-04-18T06:02:52.498Z,2.52
2024-04-18T06:05:37.333Z,2.75
2024-04-18T06:08:22.270Z,3.00
2024-04-18T06:11:07.416Z,3.25
2024-04-18T06:13:52.505Z,3.51
2024-04-18T06:16:37.520Z,3.79
2024-04-18T06:19:23.129Z,3.96
2024-04-18T06:22:09.118Z,4.02
2024-04-18T06:24:54.160Z,4.17
2024-04-18T06:27:39.097Z,4.39
2024-04-18T06:30:24.198Z,4.48
2024-04-18T06:33:09.292Z,4.46
2024-04-18T06:35:54.295Z,4.58
2024-04-18T06:38:39.329Z,4.88
2024-04-18T06:41:24.461Z,5.31
2024-04-18T06:44:09.431Z,5.64
2024-04-18T06:47:00.552Z,5.18
2024-04-18T06:49:47.499Z,4.30
2024-04-18T06:52:32.675Z,3.93
2024-04-18T06:55:17.719Z,3.84
2024-04-18T06:58:02.971Z,4.49
2024-04-18T07:00:48.190Z,4.44
2024-04-18T07:03:33.712Z,4.15
2024-04-18T07:06:18.677Z,3.74
2024-04-18T07:09:03.588Z,3.34
2024-04-18T07:11:48.791Z,3.24
2024-04-18T07:14:33.901Z,3.31
2024-04-18T07:17:18.956Z,3.16
2024-04-18T07:20:04.039Z,2.99
2024-04-18T07:22:49.211Z,2.86
2024-04-18T07:25:34.255Z,3.16
2024-04-18T07:28:19.378Z,3.36
2024-04-18T07:31:04.548Z,3.77
2024-04-18T07:33:49.562Z,3.83
2024-04-18T07:36:34.812Z,3.93
2024-04-18T07:39:20.216Z,3.92
2024-04-18T07:42:05.367Z,3.67
2024-04-18T07:44:50.297Z,3.72
2024-04-18T07:47:35.467Z,4.28
2024-04-18T07:50:20.583Z,4.32
2024-04-18T07:53:09.868Z,4.48
2024-04-18T07:55:55.802Z,4.90
2024-04-18T07:58:41.538Z,5.31
2024-04-18T08:01:28.372Z,5.45
2024-04-18T08:04:34.759Z,5.70
2024-04-18T08:07:22.292Z,5.61
2024-04-18T08:10:11.698Z,5.18
2024-04-18T08:13:02.586Z,5.10
2024-04-18T08:18:38.328Z,4.83
2024-04-18T08:21:23.394Z,4.69
2024-04-18T08:24:08.373Z,4.37
2024-04-18T08:26:53.666Z,4.74
2024-04-18T08:29:38.732Z,5.26
2024-04-18T08:32:23.798Z,5.67
2024-04-18T08:35:08.878Z,5.62
2024-04-18T08:37:53.855Z,5.53
2024-04-18T08:40:40.070Z,4.95
2024-04-18T08:43:25.126Z,4.72
2024-04-18T08:46:11.598Z,4.60
2024-04-18T08:48:56.941Z,3.98
2024-04-18T08:51:41.919Z,4.15
2024-04-18T08:54:26.848Z,4.23
2024-04-18T08:57:11.952Z,4.74
2024-04-18T08:59:57.053Z,4.67
2024-04-18T09:02:42.140Z,5.30
2024-04-18T09:05:27.423Z,5.59
2024-04-18T09:08:12.434Z,5.79
2024-04-18T09:10:57.353Z,5.67
2024-04-18T09:13:42.468Z,4.83
2024-04-18T09:16:27.500Z,4.83
2024-04-18T09:19:13.822Z,5.14
2024-04-18T09:21:59.539Z,4.97
2024-04-18T09:24:44.749Z,4.62
2024-04-18T09:27:29.740Z,4.73
2024-04-18T09:30:14.791Z,4.70
2024-04-18T09:33:01.799Z,4.86
2024-04-18T09:35:46.941Z,5.48
2024-04-18T09:38:31.947Z,5.80
2024-04-18T09:41:16.930Z,5.65
2024-04-18T09:44:01.982Z,5.62
2024-04-18T09:46:47.222Z,5.73
2024-04-18T09:49:32.312Z,5.36
2024-04-18T09:52:17.471Z,5.22
2024-04-18T09:55:02.578Z,5.62
2024-04-18T09:57:50.621Z,5.63
2024-04-18T10:00:36.033Z,5.40
2024-04-18T10:03:21.062Z,5.10
2024-04-18T10:06:06.177Z,5.30
2024-04-18T10:08:51.200Z,5.01
2024-04-18T10:11:36.389Z,4.96
2024-04-18T10:14:21.289Z,5.33
2024-04-18T10:17:06.350Z,5.41
2024-04-18T10:19:51.517Z,5.31
2024-04-18T10:22:45.488Z,5.30
2024-04-18T10:25:32.628Z,5.20
2024-04-18T10:28:17.801Z,5.20
2024-04-18T10:31:02.956Z,5.47
2024-04-18T10:33:47.914Z,5.77
2024-04-18T10:36:32.859Z,6.12
2024-04-18T10:39:17.791Z,6.33
2024-04-18T10:42:03.118Z,6.69
2024-04-18T10:44:48.067Z,6.98
2024-04-18T10:47:33.387Z,6.49
2024-04-18T10:50:18.510Z,7.12
2024-04-18T10:53:03.573Z,7.42
2024-04-18T10:55:48.678Z,7.03
2024-04-18T10:58:33.814Z,5.90
2024-04-18T11:01:19.126Z,6.03
2024-04-18T11:04:04.106Z,6.20
2024-04-18T11:06:49.035Z,6.61
2024-04-18T11:09:34.234Z,6.87
2024-04-18T11:12:19.280Z,6.86
2024-04-18T11:15:04.402Z,7.24
2024-04-18T11:17:49.388Z,6.45
2024-04-18T11:20:34.486Z,6.44
2024-04-18T11:23:19.549Z,6.48
2024-04-18T11:26:05.747Z,6.63
2024-04-18T11:28:50.917Z,6.42
2024-04-18T11:31:35.851Z,6.48
2024-04-18T11:34:20.828Z,6.82
2024-04-18T11:37:05.856Z,6.95
2024-04-18T11:39:50.905Z,7.40
2024-04-18T11:42:36.071Z,7.83
2024-04-18T11:45:21.052Z,7.45
2024-04-18T11:48:06.496Z,7.80
2024-04-18T11:50:51.812Z,8.17
2024-04-18T11:53:36.974Z,8.27
2024-04-18T11:56:21.976Z,8.95
2024-04-18T11:59:06.958Z,9.41
2024-04-18T12:01:51.969Z,9.16
2024-04-18T12:04:38.244Z,9.67
2024-04-18T12:07:24.301Z,10.20
2024-04-18T12:10:09.368Z,10.74
2024-04-18T12:12:54.523Z,11.20
2024-04-18T12:15:39.638Z,10.86
2024-04-18T12:18:24.695Z,9.69
2024-04-18T12:21:09.738Z,9.46
2024-04-18T12:23:54.647Z,9.44
2024-04-18T12:26:39.982Z,9.96
2024-04-18T12:29:24.998Z,10.13
2024-04-18T12:32:10.130Z,8.99
2024-04-18T12:34:55.146Z,8.57
2024-04-18T12:37:40.060Z,8.65
2024-04-18T12:40:25.102Z,7.71
2024-04-18T12:43:10.106Z,7.63
2024-04-18T12:46:03.504Z,7.74
2024-04-18T12:48:56.366Z,8.44
2024-04-18T12:51:41.751Z,8.16
2024-04-18T12:54:26.692Z,8.37
2024-04-18T12:57:11.667Z,7.90
2024-04-18T12:59:56.547Z,7.84
2024-04-18T13:02:41.554Z,8.01
2024-04-18T13:05:26.727Z,8.01
2024-04-18T13:08:11.699Z,7.46
2024-04-18T13:10:56.768Z,7.78
2024-04-18T13:13:41.738Z,7.96
2024-04-18T13:16:26.982Z,8.15
2024-04-18T13:19:11.968Z,7.16
2024-04-18T13:22:00.081Z,6.89
2024-04-18T13:24:45.760Z,6.79
2024-04-18T13:27:31.635Z,7.05
2024-04-18T13:30:16.907Z,7.18
2024-04-18T13:33:02.047Z,7.52
2024-04-18T13:35:46.866Z,8.13
2024-04-18T13:38:31.974Z,8.10
2024-04-18T13:41:17.013Z,8.03
2024-04-18T13:44:02.194Z,8.17
2024-04-18T13:46:47.277Z,8.25
2024-04-18T13:49:32.186Z,7.87
2024-04-18T13:52:17.181Z,7.48
2024-04-18T13:55:02.219Z,7.88
2024-04-18T13:57:47.315Z,7.57
2024-04-18T14:00:32.424Z,7.31
2024-04-18T14:03:19.308Z,7.66
2024-04-18T14:06:04.656Z,7.84
2024-04-18T14:08:49.683Z,8.07
2024-04-18T14:11:34.860Z,8.05
2024-04-18T14:14:19.950Z,8.22
2024-04-18T14:17:05.163Z,8.47
2024-04-18T14:19:49.961Z,8.01
2024-04-18T14:22:34.954Z,8.04
2024-04-18T14:25:19.991Z,7.98
2024-04-18T14:28:09.681Z,7.51
2024-04-18T14:30:57.828Z,7.24
2024-04-18T14:33:43.057Z,7.02
2024-04-18T14:36:27.961Z,6.81
2024-04-18T14:39:13.046Z,6.61
2024-04-18T14:41:58.036Z,6.56
2024-04-18T14:44:43.249Z,6.06
2024-04-18T14:47:28.334Z,6.30
2024-04-18T14:50:13.523Z,6.75
2024-04-18T14:52:58.622Z,7.09
2024-04-18T14:55:43.737Z,7.14
2024-04-18T14:58:28.845Z,6.86
2024-04-18T15:01:13.875Z,6.46
2024-04-18T15:03:58.976Z,6.32
2024-04-18T15:06:43.775Z,6.31
2024-04-18T15:09:28.844Z,6.25
2024-04-18T15:12:13.876Z,6.34
2024-04-18T15:14:58.840Z,6.65
2024-04-18T15:17:44.044Z,6.84
2024-04-18T15:20:28.920Z,7.08
2024-04-18T15:23:14.061Z,6.75
2024-04-18T15:25:59.156Z,6.39
2024-04-18T15:28:44.429Z,6.05
2024-04-18T15:31:29.338Z,6.18
2024-04-18T15:34:14.543Z,6.34
2024-04-18T15:36:59.723Z,6.55
2024-04-18T15:39:44.593Z,6.85
2024-04-18T15:42:29.686Z,7.07
2024-04-18T15:45:14.781Z,6.96
2024-04-18T15:47:59.859Z,7.01
2024-04-18T15:50:44.814Z,7.18
2024-04-18T15:53:29.963Z,7.19
2024-04-18T15:56:16.571Z,6.71
2024-04-18T15:59:01.925Z,6.34
2024-04-18T16:01:47.038Z,6.67
2024-04-18T16:04:31.977Z,6.62
2024-04-18T16:07:17.034Z,6.50
2024-04-18T16:10:02.247Z,6.66
2024-04-18T16:12:47.396Z,6.53
2024-04-18T16:15:32.481Z,6.77
2024-04-18T16:18:17.589Z,7.01
2024-04-18T16:21:02.656Z,6.97
2024-04-18T16:23:47.731Z,7.11
2024-04-18T16:26:32.919Z,7.19
2024-04-18T16:29:17.978Z,6.82
2024-04-18T16:32:03.025Z,6.72
2024-04-18T16:34:48.115Z,6.65
2024-04-18T16:37:33.209Z,6.68
2024-04-18T16:40:18.520Z,6.50
2024-04-18T16:43:03.494Z,6.51
2024-04-18T16:45:48.847Z,6.56
2024-04-18T16:48:33.796Z,6.51
2024-04-18T16:51:19.017Z,6.42
2024-04-18T16:54:03.806Z,6.31
2024-04-18T16:56:48.932Z,6.35
2024-04-18T16:59:33.903Z,6.38
2024-04-18T17:02:18.848Z,6.38
2024-04-18T17:05:04.061Z,6.45
2024-04-18T17:07:48.966Z,6.46
2024-04-18T17:10:34.295Z,6.38
2024-04-18T17:13:19.122Z,6.26
2024-04-18T17:16:04.118Z,6.14
2024-04-18T17:18:49.311Z,6.25
2024-04-18T17:21:34.620Z,6.24
2024-04-18T17:24:19.762Z,6.19
2024-04-18T17:27:04.821Z,6.18
2024-04-18T17:29:49.945Z,6.28
2024-04-18T17:32:35.064Z,6.31
2024-04-18T17:35:20.109Z,6.23
2024-04-18T17:38:05.229Z,6.15
2024-04-18T17:40:50.444Z,6.05
2024-04-18T17:43:35.782Z,6.03
2024-04-18T17:46:20.767Z,5.98
2024-04-18T17:49:06.066Z,5.90
2024-04-18T17:51:51.036Z,5.80
2024-04-18T17:54:36.250Z,5.69
2024-04-18T17:57:21.275Z,5.64
2024-04-18T18:00:06.291Z,5.58
2024-04-18T18:02:51.533Z,5.50
2024-04-18T18:05:36.450Z,5.40
2024-04-18T18:08:21.587Z,5.40
2024-04-18T18:11:06.640Z,5.41
2024-04-18T18:13:53.795Z,5.40
2024-04-18T18:16:38.967Z,5.30
2024-04-18T18:19:23.993Z,5.15
2024-04-18T18:22:09.163Z,4.98
2024-04-18T18:24:54.290Z,4.89
2024-04-18T18:27:39.410Z,4.77
2024-04-18T18:30:24.271Z,4.70
2024-04-18T18:33:09.480Z,4.61
2024-04-18T18:35:54.640Z,4.48
2024-04-18T18:38:39.716Z,4.43
2024-04-18T18:41:24.719Z,4.33
2024-04-18T18:44:09.608Z,4.24
2024-04-18T18:46:54.705Z,4.20
2024-04-18T18:49:39.683Z,4.18
2024-04-18T18:52:24.937Z,4.19
2024-04-18T18:55:09.994Z,4.17
2024-04-18T18:57:55.035Z,4.12
2024-04-18T19:00:40.152Z,4.08
2024-04-18T19:03:25.285Z,4.07
2024-04-18T19:06:10.300Z,4.24
2024-04-18T19:08:55.407Z,4.31
2024-04-18T19:11:40.505Z,4.40
2024-04-18T19:14:25.442Z,4.34
2024-04-18T19:17:11.153Z,4.37
2024-04-18T19:19:57.087Z,4.37
2024-04-18T19:22:42.106Z,4.39
2024-04-18T19:25:27.166Z,4.38
2024-04-18T19:28:12.116Z,4.23
2024-04-18T19:30:57.196Z,4.20
2024-04-18T19:33:42.349Z,4.02
2024-04-18T19:36:27.913Z,3.82
2024-04-18T19:39:13.061Z,3.88
2024-04-18T19:41:58.202Z,3.89
2024-04-18T19:44:43.353Z,3.82
2024-04-18T19:47:28.272Z,3.73
2024-04-18T19:50:13.273Z,3.74
2024-04-18T19:52:58.381Z,3.77
2024-04-18T19:55:43.490Z,3.72
2024-04-18T19:58:28.492Z,3.57
2024-04-18T20:01:13.612Z,3.41
2024-04-18T20:03:58.841Z,3.35
2024-04-18T20:06:43.707Z,3.31
2024-04-18T20:09:28.916Z,3.21
2024-04-18T20:12:13.902Z,3.41
2024-04-18T20:14:59.056Z,3.47
2024-04-18T20:17:46.246Z,3.47
2024-04-18T20:20:32.172Z,3.53
2024-04-18T20:23:17.313Z,3.59
2024-04-18T20:26:02.415Z,3.69
2024-04-18T20:28:47.539Z,3.72
2024-04-18T20:31:32.607Z,3.74
2024-04-18T20:34:17.629Z,3.68
2024-04-18T20:37:02.776Z,3.66
2024-04-18T20:39:47.864Z,3.70
2024-04-18T20:42:33.005Z,3.63
2024-04-18T20:45:18.041Z,3.57
2024-04-18T20:48:03.337Z,3.51
2024-04-18T20:50:48.468Z,3.47
2024-04-18T20:53:33.538Z,3.47
2024-04-18T20:56:18.641Z,3.36
2024-04-18T20:59:03.740Z,3.36
2024-04-18T21:01:48.820Z,3.36
2024-04-18T21:04:33.817Z,3.27
2024-04-18T21:07:19.010Z,3.21
2024-04-18T21:10:03.946Z,3.12
2024-04-18T21:12:49.026Z,3.07
2024-04-18T21:15:34.111Z,3.01
2024-04-18T21:18:19.187Z,3.03
2024-04-18T21:21:04.243Z,2.96
2024-04-18T21:23:49.246Z,2.91
2024-04-18T21:26:34.397Z,2.94
2024-04-18T21:29:19.522Z,2.91
2024-04-18T21:32:04.762Z,2.96
2024-04-18T21:34:49.882Z,2.94
2024-04-18T21:37:34.851Z,2.99
2024-04-18T21:40:20.057Z,2.99
2024-04-18T21:43:04.931Z,3.13
2024-04-18T21:45:50.204Z,3.17
2024-04-18T21:48:35.352Z,3.03
2024-04-18T21:51:20.249Z,2.97
2024-04-18T21:54:05.173Z,2.93
2024-04-18T21:56:50.239Z,2.89
2024-04-18T21:59:35.257Z,2.84
2024-04-18T22:02:20.314Z,2.85
2024-04-18T22:05:05.341Z,2.84
2024-04-18T22:07:50.379Z,2.77
2024-04-18T22:10:35.528Z,2.68
2024-04-18T22:13:20.454Z,2.64
2024-04-18T22:16:05.498Z,2.66
2024-04-18T22:18:50.677Z,2.69
2024-04-18T22:21:35.616Z,2.63
2024-04-18T22:24:20.777Z,2.57
2024-04-18T22:27:05.667Z,2.55
2024-04-18T22:29:50.856Z,2.44
2024-04-18T22:32:35.978Z,2.31
2024-04-18T22:35:21.194Z,2.32
2024-04-18T22:38:06.464Z,2.21
2024-04-18T22:40:51.506Z,2.11
2024-04-18T22:43:36.681Z,1.99
2024-04-18T22:46:21.591Z,1.97
2024-04-18T22:49:06.893Z,1.97
2024-04-18T22:51:51.933Z,1.87
2024-04-18T22:54:37.100Z,1.82
2024-04-18T22:57:22.003Z,1.84
2024-04-18T23:00:07.069Z,1.79
2024-04-18T23:02:52.237Z,1.83
2024-04-18T23:05:37.206Z,1.88
2024-04-18T23:08:22.215Z,1.84
2024-04-18T23:11:07.174Z,1.81
2024-04-18T23:13:52.294Z,1.80
2024-04-18T23:16:37.347Z,1.71
2024-04-18T23:19:22.484Z,1.61
2024-04-18T23:22:07.505Z,1.72
2024-04-18T23:24:52.430Z,1.69
2024-04-18T23:27:37.738Z,1.68
2024-04-18T23:30:22.865Z,1.68
2024-04-18T23:33:07.970Z,1.69
2024-04-18T23:35:52.848Z,1.61
2024-04-18T23:38:37.949Z,1.64
2024-04-18T23:41:23.175Z,1.63
2024-04-18T23:44:08.288Z,1.64
2024-04-18T23:46:53.374Z,1.47
2024-04-18T23:49:38.358Z,1.31
2024-04-18T23:52:23.486Z,1.33
2024-04-18T23:55:08.424Z,1.39
2024-04-18T23:57:53.742Z,1.55
